New Orleans, Louisiana
Current Conditions -  °F | °C
As of 10:15 AM on Sunday 25 Jan 2015 (Local Time) from KVSH Reporting Station
Clear Clear  
Wind Chill: 14°   Ceiling: Unl
Heat Index: 14°   Visibility: 10mi
Dew Point:   Wind: 10mph
Humidity: 55%   Direction: 240°WSW
Pressure: 30.04"   Gusts: 16mph
Location:  29.95°N, 90.08°W
Report Text: KVSH 251615Z AUTO 24009G14KT 10SM CLR 14/05 A3004 RMK AO1
Loading
Personal Weather Stations






























Interactive Weather Map New forecast layout! Learn more

10-Day Weather Forecast

Advertisements
Track Severe Weather on mobile